Antioch, TX

6:19 AM CDT on September 19, 2014 (GMT -0500)
Shreveport Regional | Change Station
CLOSE
Current Station
Airport
Location: Shreveport,
Elevation: 259 ft
Nearby Weather Stations

Elev 259 ft 32.45 °N, 93.82 °W | Updated 23 minutes ago

Partly Cloudy
Partly Cloudy
73 °F
Feels Like 73 °F
N
5
Wind Variable Wind from NNE

Today
High -- | Low -- °F
--% Chance of Precip.
Yesterday
High -- | Low -- °F
Precip. -- in
7:02 AM 7:16 PM
Waning Crescent, 20% visible
Pressure 29.91 in
Visibility 10.0 miles
Clouds Scattered Clouds 28000 ft
Dew Point 70 °F
Humidity 90%
Rainfall 0.00 in
Snow Depth Not available.
UV 0 out of 12
Pollen 10.50 out of 12
Air Quality Not available.
Flu Activity Not available.
METAR KSHV 191056Z 02004KT 10SM SCT280 23/21 A2991 RMK AO2 SLP126 T02280211

More Conditions Fewer Conditions

Pressure 29.91 in
Visibility 10.0 miles
Clouds Scattered Clouds 28000 ft
Dew Point 70 °F
Humidity 90%
Rainfall 0.00 in
Snow Depth Not available.
UV 0 out of 12
Pollen 10.50 out of 12
Air Quality Not available.
Flu Activity Not available.
METAR KSHV 191056Z 02004KT 10SM SCT280 23/21 A2991 RMK AO2 SLP126 T02280211

More Conditions Fewer Conditions

10-Day Weather Forecast

Almanac

Astronomy

Sep. 19, 2014 Rise Set
Actual Time 7:02 AM CDT 7:16 PM CDT
Civil Twilight 6:38 AM CDT 7:41 PM CDT
Nautical Twilight 6:09 AM CDT 8:09 PM CDT
Astronomical Twilight 5:40 AM CDT 8:38 PM CDT
Moon 3:00 AM CDT 4:35 PM CDT
Length of Visible Light 13h 02m
Length of Day
12h 14m
Tomorrow will be 1m 57s shorter.
Waning Crescent, 20% of the Moon is Illuminated
Today
Waning Crescent
Sep 24
New
Oct 1
First Quarter
Oct 8
Full
Oct 15
Last Quarter

Today's Extremes

State Highs State Lows

Community

WunderPhotos

Upload Photos

1,754,592 photos uploaded!

WunderBlogs® & News

Nearby

Snow Depth

Station Depth Elevation
No new snow has been reported.

Earthquake Activity

City Distance Mag. Time & Date
No recent earthquake activity has been reported nearby.
Minimum magnitude displayed is 2.5.

Coastal Water Temperatures

Place Temperature
No Stations Reporting

Nearby Weather Stations